Etusivu
METAR-TAF:

METAR-TAF

Lentoasemat :

Guilin, Kiina

Leveyspiiri: 25-20N, Pituuspiiri: 110-18E, korkeus merenpinnasta: 166 m

Tämänhetkinen sää

Tämä raportti tehtiin 49 minuuttia sitten, kello 01.00 UTC
Tuuli 4 kn eri suunnista
Lämpötila 10°C
Kosteus 93%
Ilmanpaine 1028 hPa
Näkyvyys: 2200 m
Muutamia pilviä 1300 ft:n korkeudessa
Hajonneita pilviä 3600 ft:n korkeudessa
Pilvistä 5600 ft:n korkeudessa
heikkoa tihkusadetta, utua

METAR: ZGKL 250100Z VRB02MPS 2200 -DZ BR FEW013 BKN036 OVC056 10/09 Q1028 BECMG FM0300 3000

Aika: 09:49 (01:49 UTC)

Sääennuste

Tämä raportti tehtiin 6 tuntia ja 35 minuuttia sitten, kello 19.14 UTC
Ennuste voimassa 25. päivästä klo 00 UTC - 25. päivään klo 24 UTC
Tuuli 6 kn koillisesta
Näkyvyys: 6000 m
Hajanaisia pilviä 3000 ft:n korkeudessa
Pilvistä 5000 ft:n korkeudessa

TAF: ZGKL 241914Z 2500/2524 05003MPS 6000 SCT030 OVC050 TX10/2507Z TN08/2522Z

Säähavainnot ja -ennusteet yli 4000 lentoasemalta (METAR- ja TAF-raportit).

Käytössä olevat sääasemat on merkitty karttaan keltaisilla ja punaisilla pisteillä.

Aseta hiiri pisteen päälle nähdäksesi sääaseman nimen.

Klikkaa sitten nähdäksesi säähavainnot ja -ennusteet.

Kartan vaihtaminen: klikkaa mustalla rastilla varustettuja vihreitä pisteitä, niin voit zoomata sisään; viivalla varustettua vihreää pistettä, niin voit zoomata ulos tai vihreitä nuolia, niin pääset viereisille kartoille.


METAR-TAF: